Time;durP1;ratioP1;P1;durP2;ratioP2;P2;SDS_P1;SDS_P2;PMS_P1;PMS_P2;Temp;Humidity;BMP_temperature;BMP_pressure;BME280_temperature;BME280_humidity;BME280_pressure;Samples;Min_cycle;Max_cycle;Signal;HPM_P1;HPM_P2
2022/08/28 00:00:46;;;;;;;12.25;3.50;;;18.00;99.90;;;;;;5063594;28;20379;-75
2022/08/28 00:03:13;;;;;;;14.40;3.83;;;18.00;99.90;;;;;;5069763;28;20016;-76
2022/08/28 00:05:40;;;;;;;14.40;3.78;;;18.00;99.90;;;;;;5069783;28;20303;-74
2022/08/28 00:08:08;;;;;;;12.43;4.05;;;18.00;99.90;;;;;;5072485;28;20032;-74
2022/08/28 00:10:34;;;;;;;8.40;3.25;;;17.90;99.90;;;;;;5066729;28;20105;-75
2022/08/28 00:13:02;;;;;;;9.68;3.47;;;17.90;99.90;;;;;;5073683;28;20028;-74
2022/08/28 00:15:34;;;;;;;13.60;3.42;;;17.90;99.90;;;;;;5069064;28;20028;-74
2022/08/28 00:18:00;;;;;;;22.33;4.05;;;17.90;99.90;;;;;;5101166;28;20029;-74
2022/08/28 00:20:27;;;;;;;16.02;4.07;;;17.90;99.90;;;;;;5065095;28;20020;-74
2022/08/28 00:22:54;;;;;;;14.32;4.05;;;17.80;99.90;;;;;;5071861;28;20078;-75
2022/08/28 00:25:24;;;;;;;9.77;3.78;;;17.80;99.90;;;;;;5100712;28;20583;-74
2022/08/28 00:27:51;;;;;;;8.60;3.72;;;17.70;99.90;;;;;;5068779;28;20135;-74
2022/08/28 00:30:30;;;;;;;15.40;4.20;;;17.80;99.90;;;;;;5073223;28;20357;-74
2022/08/28 00:32:59;;;;;;;9.60;3.45;;;17.70;99.90;;;;;;5069593;28;20337;-74
2022/08/28 00:35:25;;;;;;;12.10;4.00;;;17.70;99.90;;;;;;5071612;28;20033;-74
2022/08/28 00:37:53;;;;;;;10.93;4.07;;;17.60;99.90;;;;;;5065470;28;20032;-73
2022/08/28 00:40:21;;;;;;;13.75;3.78;;;17.60;99.90;;;;;;5069775;28;20104;-73
2022/08/28 00:42:49;;;;;;;13.32;3.38;;;17.50;99.90;;;;;;5071271;28;20096;-75
2022/08/28 00:45:16;;;;;;;16.27;3.67;;;17.50;99.90;;;;;;5069690;28;20109;-74
2022/08/28 00:47:42;;;;;;;7.95;3.47;;;17.40;99.90;;;;;;5063650;28;20132;-75
2022/08/28 00:50:16;;;;;;;9.10;3.45;;;17.30;99.90;;;;;;5068587;28;20523;-74
2022/08/28 00:52:46;;;;;;;10.35;3.10;;;17.30;99.90;;;;;;5071368;28;20147;-75
2022/08/28 00:55:16;;;;;;;6.60;3.63;;;17.20;99.90;;;;;;5071277;28;20055;-74
2022/08/28 00:57:48;;;;;;;12.43;3.42;;;17.20;99.90;;;;;;5064693;28;20116;-74
2022/08/28 01:00:28;;;;;;;10.32;3.42;;;17.10;99.90;;;;;;5063842;28;20020;-74
2022/08/28 01:02:54;;;;;;;7.82;3.25;;;17.10;99.90;;;;;;5068686;28;20016;-74
2022/08/28 01:05:21;;;;;;;12.30;4.32;;;17.00;99.90;;;;;;5069103;28;20085;-74
2022/08/28 01:07:48;;;;;;;10.60;3.83;;;17.00;99.90;;;;;;5069975;28;20123;-73
2022/08/28 01:10:20;;;;;;;12.27;3.20;;;16.90;99.90;;;;;;5070266;28;20079;-74
2022/08/28 01:12:48;;;;;;;12.45;3.67;;;16.80;99.90;;;;;;5070262;28;20054;-75
2022/08/28 01:15:17;;;;;;;11.75;3.70;;;16.80;99.90;;;;;;5067118;28;20020;-75
2022/08/28 01:17:52;;;;;;;14.82;4.10;;;16.70;99.90;;;;;;5072137;28;20095;-74
2022/08/28 01:20:23;;;;;;;7.45;3.88;;;16.70;99.90;;;;;;5068286;28;20048;-75
2022/08/28 01:23:12;;;;;;;13.57;4.28;;;16.60;99.90;;;;;;5067926;28;20017;-75
2022/08/28 01:25:39;;;;;;;7.95;3.78;;;16.60;99.90;;;;;;5067872;28;20021;-74
2022/08/28 01:28:09;;;;;;;10.90;3.95;;;16.50;99.90;;;;;;5071081;28;20029;-74
2022/08/28 01:30:38;;;;;;;11.43;4.00;;;16.50;99.90;;;;;;5068679;28;20115;-75
2022/08/28 01:33:06;;;;;;;13.18;3.85;;;16.50;99.90;;;;;;5069161;28;20028;-75
2022/08/28 01:35:34;;;;;;;11.23;3.75;;;16.40;99.90;;;;;;5070611;28;20021;-75
2022/08/28 01:38:05;;;;;;;14.70;4.18;;;16.50;99.90;;;;;;5067821;28;20330;-75
2022/08/28 01:40:45;;;;;;;13.68;3.60;;;16.50;99.90;;;;;;5063834;28;20024;-76
2022/08/28 01:43:25;;;;;;;10.13;4.30;;;16.50;99.90;;;;;;5069761;28;20032;-75
2022/08/28 01:45:54;;;;;;;11.95;4.22;;;16.40;99.90;;;;;;5067779;28;20131;-74
2022/08/28 01:48:23;;;;;;;9.57;4.47;;;16.40;99.90;;;;;;5066567;28;20104;-75
2022/08/28 01:50:49;;;;;;;16.40;4.97;;;16.40;99.90;;;;;;5068123;28;20017;-75
2022/08/28 01:53:17;;;;;;;12.18;4.57;;;16.40;99.90;;;;;;5066017;28;20035;-74
2022/08/28 01:55:48;;;;;;;18.92;4.78;;;16.30;99.90;;;;;;5066099;28;20119;-75
2022/08/28 01:58:17;;;;;;;15.43;4.07;;;16.40;99.90;;;;;;5062128;28;20029;-75
2022/08/28 02:00:43;;;;;;;14.52;3.85;;;16.30;99.90;;;;;;5068112;28;20107;-75
2022/08/28 02:03:14;;;;;;;13.00;4.32;;;16.30;99.90;;;;;;5069434;28;20174;-75
2022/08/28 02:05:40;;;;;;;13.73;4.22;;;16.30;99.90;;;;;;5070082;28;20024;-74
2022/08/28 02:08:06;;;;;;;16.00;5.30;;;16.30;99.90;;;;;;5070082;28;20070;-75
2022/08/28 02:10:38;;;;;;;13.57;4.50;;;16.30;99.90;;;;;;5069862;28;20161;-75
2022/08/28 02:13:06;;;;;;;15.02;4.43;;;16.30;99.90;;;;;;5067742;28;20045;-75
2022/08/28 02:15:33;;;;;;;15.38;4.80;;;16.20;99.90;;;;;;5069690;28;20028;-74
2022/08/28 02:17:59;;;;;;;9.98;4.03;;;16.20;99.90;;;;;;5066840;28;20052;-75
2022/08/28 02:20:29;;;;;;;15.70;4.82;;;16.20;99.90;;;;;;5066578;28;20060;-75
2022/08/28 02:22:57;;;;;;;16.63;4.35;;;16.10;99.90;;;;;;5070301;28;20117;-75
2022/08/28 02:25:23;;;;;;;13.75;5.18;;;16.10;99.90;;;;;;5068116;28;20029;-73
2022/08/28 02:27:49;;;;;;;14.95;5.20;;;16.00;99.90;;;;;;5069458;28;20044;-74
2022/08/28 02:30:17;;;;;;;18.45;5.10;;;16.00;99.90;;;;;;5066361;28;20362;-75
2022/08/28 02:32:45;;;;;;;12.23;4.82;;;16.00;99.90;;;;;;5067404;28;20028;-74
2022/08/28 02:35:16;;;;;;;16.63;4.60;;;15.90;99.90;;;;;;5069638;28;20361;-74
2022/08/28 02:37:43;;;;;;;19.77;5.43;;;15.90;99.90;;;;;;5070087;28;20116;-75
2022/08/28 02:40:10;;;;;;;13.05;5.28;;;15.90;99.90;;;;;;5070150;28;20020;-74
2022/08/28 02:42:36;;;;;;;12.68;5.05;;;15.90;99.90;;;;;;5069888;28;20020;-74
2022/08/28 02:45:04;;;;;;;13.70;5.63;;;15.80;99.90;;;;;;5063837;28;20454;-74
2022/08/28 02:47:30;;;;;;;14.18;5.55;;;15.80;99.90;;;;;;5070685;28;20056;-74
2022/08/28 02:49:58;;;;;;;18.13;5.35;;;15.80;99.90;;;;;;5068145;28;20064;-75
2022/08/28 02:52:24;;;;;;;13.35;5.75;;;15.80;99.90;;;;;;5066186;28;20106;-75
2022/08/28 02:54:52;;;;;;;14.43;5.93;;;15.70;99.90;;;;;;5068639;28;20457;-74
2022/08/28 02:57:17;;;;;;;7.03;4.45;;;15.60;99.90;;;;;;5068036;28;20064;-74
2022/08/28 02:59:44;;;;;;;11.98;5.65;;;15.60;99.90;;;;;;5067264;28;20067;-74
2022/08/28 03:02:12;;;;;;;13.55;5.57;;;15.50;99.90;;;;;;5071050;28;20013;-75
2022/08/28 03:04:38;;;;;;;15.60;5.40;;;15.50;99.90;;;;;;5072459;28;20028;-75
2022/08/28 03:07:06;;;;;;;11.55;5.38;;;15.50;99.90;;;;;;5071774;28;20445;-77
2022/08/28 03:09:32;;;;;;;11.88;6.05;;;15.50;99.90;;;;;;5071576;28;20035;-75
2022/08/28 03:12:01;;;;;;;12.93;5.60;;;15.40;99.90;;;;;;5071425;28;20123;-74
2022/08/28 03:14:29;;;;;;;13.65;5.88;;;15.40;99.90;;;;;;5068055;28;20066;-76
2022/08/28 03:16:55;;;;;;;14.35;6.47;;;15.40;99.90;;;;;;5071392;28;20056;-74
2022/08/28 03:19:21;;;;;;;18.45;5.82;;;15.30;99.90;;;;;;5073111;28;20094;-75
2022/08/28 03:21:46;;;;;;;15.68;6.05;;;15.30;99.90;;;;;;5071534;28;20021;-76
2022/08/28 03:24:12;;;;;;;14.13;5.95;;;15.30;99.90;;;;;;5066382;28;20100;-78
2022/08/28 03:26:37;;;;;;;16.80;6.70;;;15.40;99.90;;;;;;5070837;28;20021;-75
2022/08/28 03:29:03;;;;;;;21.42;5.78;;;15.40;99.90;;;;;;5072020;28;20028;-76
2022/08/28 03:31:32;;;;;;;20.85;6.65;;;15.30;99.90;;;;;;5068345;28;20027;-76
2022/08/28 03:33:58;;;;;;;17.60;6.03;;;15.40;99.90;;;;;;5069002;28;20067;-75
2022/08/28 03:36:26;;;;;;;11.57;5.55;;;15.40;99.90;;;;;;5072430;28;20059;-76
2022/08/28 03:38:54;;;;;;;12.13;5.82;;;15.50;99.90;;;;;;5070007;28;20368;-77
2022/08/28 03:41:22;;;;;;;17.23;5.85;;;15.50;99.90;;;;;;5069726;28;20082;-75
2022/08/28 03:43:48;;;;;;;14.00;5.32;;;15.50;99.90;;;;;;5070316;28;20025;-77
2022/08/28 03:46:17;;;;;;;15.93;6.57;;;15.50;99.90;;;;;;5067452;28;20025;-75
2022/08/28 03:48:43;;;;;;;15.38;5.68;;;15.50;99.90;;;;;;5072736;28;20499;-76
2022/08/28 03:51:12;;;;;;;12.55;5.75;;;15.40;99.90;;;;;;5070683;28;20079;-75
2022/08/28 03:53:41;;;;;;;15.55;6.05;;;15.40;99.90;;;;;;5070691;28;20032;-77
2022/08/28 03:56:12;;;;;;;15.30;5.93;;;15.40;99.90;;;;;;5067367;28;20453;-77
2022/08/28 03:58:41;;;;;;;21.70;6.18;;;15.40;99.90;;;;;;5064865;28;20036;-75
2022/08/28 04:01:08;;;;;;;13.23;5.45;;;15.30;99.90;;;;;;5071324;28;20430;-76
2022/08/28 04:03:34;;;;;;;10.27;5.97;;;15.30;99.90;;;;;;5075809;28;20016;-75
2022/08/28 04:05:59;;;;;;;12.73;5.78;;;15.30;99.90;;;;;;5073297;28;20034;-75
2022/08/28 04:08:26;;;;;;;11.68;5.63;;;15.20;99.90;;;;;;5068644;28;20032;-74
2022/08/28 04:10:54;;;;;;;16.25;6.50;;;15.20;99.90;;;;;;5080444;28;20103;-75
2022/08/28 04:13:22;;;;;;;13.18;5.78;;;15.20;99.90;;;;;;5071627;28;20048;-74
2022/08/28 04:16:09;;;;;;;15.43;6.07;;;15.20;99.90;;;;;;5066960;28;20067;-74
2022/08/28 04:18:38;;;;;;;11.18;5.75;;;15.20;99.90;;;;;;5063540;28;20029;-74
2022/08/28 04:21:07;;;;;;;13.77;6.28;;;15.20;99.90;;;;;;5065680;28;20067;-76
2022/08/28 04:23:34;;;;;;;17.35;6.32;;;15.20;99.90;;;;;;5070802;28;20028;-74
2022/08/28 04:26:02;;;;;;;19.73;6.35;;;15.20;99.90;;;;;;5070235;28;20035;-75
2022/08/28 04:28:31;;;;;;;14.32;6.22;;;15.30;99.90;;;;;;5068230;28;20119;-75
2022/08/28 04:30:59;;;;;;;18.40;6.03;;;15.30;99.90;;;;;;5071560;28;20025;-75
2022/08/28 04:33:27;;;;;;;15.82;6.10;;;15.30;99.90;;;;;;5070775;28;20029;-73
2022/08/28 04:35:53;;;;;;;12.13;5.25;;;15.30;99.90;;;;;;5069466;28;20021;-75
2022/08/28 04:38:19;;;;;;;14.38;6.22;;;15.30;99.90;;;;;;5069604;28;20025;-75
2022/08/28 04:40:45;;;;;;;16.70;6.28;;;15.30;99.90;;;;;;5069734;28;20103;-74
2022/08/28 04:43:11;;;;;;;17.33;5.88;;;15.30;99.90;;;;;;5072638;28;20020;-74
2022/08/28 04:45:42;;;;;;;16.08;6.22;;;15.30;99.90;;;;;;5068207;28;20566;-74
2022/08/28 04:48:11;;;;;;;14.10;5.63;;;15.20;99.90;;;;;;5071018;28;20025;-74
2022/08/28 04:50:44;;;;;;;16.42;5.90;;;15.30;99.90;;;;;;5071050;28;20032;-75
2022/08/28 04:53:10;;;;;;;;;;;15.30;99.90;;;;;;5066527;28;20438;-74
2022/08/28 04:55:45;;;;;;;19.60;6.65;;;15.30;99.90;;;;;;5067424;28;19939;-74
2022/08/28 04:58:13;;;;;;;21.50;5.97;;;15.30;99.90;;;;;;5068630;28;20081;-74
2022/08/28 05:00:41;;;;;;;15.30;5.63;;;15.30;99.90;;;;;;5072276;28;20013;-75
2022/08/28 05:03:13;;;;;;;16.70;6.63;;;15.40;99.90;;;;;;5068836;28;20220;-74
2022/08/28 05:05:52;;;;;;;20.00;6.50;;;15.40;99.90;;;;;;5068011;28;20020;-75
2022/08/28 05:08:20;;;;;;;14.48;5.90;;;15.50;99.90;;;;;;5065007;28;20024;-74
2022/08/28 05:10:46;;;;;;;13.80;5.07;;;15.50;99.90;;;;;;5071561;28;20048;-74
2022/08/28 05:13:17;;;;;;;16.67;5.93;;;15.70;99.90;;;;;;5068843;28;20428;-76
2022/08/28 05:15:45;;;;;;;18.33;5.47;;;15.70;99.90;;;;;;5069609;28;20475;-75
2022/08/28 05:18:13;;;;;;;15.75;5.22;;;15.70;99.90;;;;;;5068160;28;20032;-74
2022/08/28 05:20:42;;;;;;;15.18;5.85;;;15.70;99.90;;;;;;5071548;28;20024;-74
2022/08/28 05:23:11;;;;;;;13.18;5.70;;;15.80;99.90;;;;;;5105879;28;20063;-74
2022/08/28 05:25:41;;;;;;;15.13;4.78;;;15.80;99.90;;;;;;5076246;28;20033;-75
2022/08/28 05:28:09;;;;;;;10.35;4.93;;;16.00;99.90;;;;;;5071900;28;20020;-74
2022/08/28 05:30:38;;;;;;;17.67;5.47;;;16.00;99.90;;;;;;5069381;28;20119;-75
2022/08/28 05:33:04;;;;;;;11.05;6.53;;;15.90;99.90;;;;;;5068879;28;20024;-75
2022/08/28 05:35:39;;;;;;;22.17;5.95;;;16.00;99.90;;;;;;5066290;28;20025;-75
2022/08/28 05:38:05;;;;;;;12.43;4.82;;;16.10;99.90;;;;;;5073066;28;20035;-75
2022/08/28 05:40:32;;;;;;;23.73;5.63;;;16.10;99.90;;;;;;5069817;28;20040;-75
2022/08/28 05:42:57;;;;;;;11.77;5.40;;;16.20;99.90;;;;;;5066056;28;20029;-75
2022/08/28 05:45:25;;;;;;;19.10;5.75;;;16.30;99.90;;;;;;5069197;28;20040;-75
2022/08/28 05:47:56;;;;;;;15.85;5.47;;;16.30;99.90;;;;;;5067638;28;20050;-73
2022/08/28 05:50:22;;;;;;;15.77;5.85;;;16.40;99.90;;;;;;5069780;28;20111;-74
2022/08/28 05:52:48;;;;;;;13.57;5.55;;;16.50;99.90;;;;;;5072551;28;20119;-74
2022/08/28 05:55:13;;;;;;;18.23;6.55;;;16.50;99.90;;;;;;5071726;28;20017;-74
2022/08/28 05:57:39;;;;;;;13.93;5.20;;;16.60;99.90;;;;;;5070418;28;20036;-76
2022/08/28 06:00:12;;;;;;;11.68;4.97;;;16.70;99.90;;;;;;5067978;28;20025;-73
2022/08/28 06:02:39;;;;;;;8.18;4.70;;;16.70;99.90;;;;;;5061744;28;20048;-73
2022/08/28 06:05:07;;;;;;;14.63;5.35;;;16.70;99.90;;;;;;5071072;28;20354;-76
2022/08/28 06:07:33;;;;;;;12.10;5.30;;;16.80;99.90;;;;;;5067646;28;20472;-73
2022/08/28 06:10:01;;;;;;;13.05;5.30;;;16.80;99.90;;;;;;5068180;28;20083;-76
2022/08/28 06:12:27;;;;;;;20.48;5.38;;;16.90;99.90;;;;;;5070589;28;20500;-75
2022/08/28 06:14:53;;;;;;;12.43;4.88;;;16.90;99.90;;;;;;5081996;28;20025;-76
2022/08/28 06:17:18;;;;;;;13.52;4.80;;;16.90;99.90;;;;;;5069216;28;20089;-77
2022/08/28 06:19:46;;;;;;;16.27;5.13;;;17.00;99.90;;;;;;5070073;28;20450;-78
2022/08/28 06:22:13;;;;;;;9.55;5.15;;;17.10;99.90;;;;;;5072097;28;20123;-76
2022/08/28 06:24:39;;;;;;;13.02;5.07;;;17.10;99.90;;;;;;5065399;28;20024;-76
2022/08/28 06:27:06;;;;;;;10.48;4.70;;;17.10;99.90;;;;;;5067221;28;20101;-76
2022/08/28 06:29:34;;;;;;;14.70;4.95;;;17.00;99.90;;;;;;5069353;28;20138;-76
2022/08/28 06:32:03;;;;;;;13.73;5.22;;;17.00;99.90;;;;;;5072100;28;20099;-75
2022/08/28 06:34:29;;;;;;;18.52;5.63;;;17.10;99.90;;;;;;5069818;28;20026;-75
2022/08/28 06:36:57;;;;;;;15.95;5.35;;;17.20;99.90;;;;;;5103130;28;20107;-72
2022/08/28 06:39:23;;;;;;;15.05;5.45;;;17.30;99.90;;;;;;5070934;28;20020;-77
2022/08/28 06:41:49;;;;;;;17.08;5.25;;;17.40;99.90;;;;;;5071863;28;20092;-75
2022/08/28 06:44:21;;;;;;;14.95;5.30;;;17.50;99.90;;;;;;5062479;28;20021;-76
2022/08/28 06:46:50;;;;;;;14.82;5.72;;;17.70;99.90;;;;;;5066752;28;20039;-75
2022/08/28 06:49:16;;;;;;;18.17;5.35;;;17.90;99.90;;;;;;5068353;28;20017;-75
2022/08/28 06:51:42;;;;;;;22.67;5.43;;;17.90;99.90;;;;;;5065817;28;20096;-74
2022/08/28 06:54:08;;;;;;;13.07;5.13;;;17.90;99.90;;;;;;5063572;28;20020;-74
2022/08/28 06:56:34;;;;;;;15.73;4.30;;;17.90;99.90;;;;;;5068961;28;20047;-75
2022/08/28 06:59:00;;;;;;;14.32;4.68;;;18.00;99.90;;;;;;5064680;28;20040;-75
2022/08/28 07:01:32;;;;;;;11.70;4.93;;;18.10;99.90;;;;;;5066739;28;20029;-74
2022/08/28 07:04:01;;;;;;;12.20;4.80;;;18.10;99.90;;;;;;5067568;28;20027;-75
2022/08/28 07:06:30;;;;;;;10.30;4.35;;;18.10;99.90;;;;;;5064318;28;20020;-74
2022/08/28 07:08:55;;;;;;;8.75;4.53;;;18.30;99.90;;;;;;5069474;28;20039;-74
2022/08/28 07:11:24;;;;;;;15.25;4.25;;;18.20;99.90;;;;;;5069400;28;20033;-74
2022/08/28 07:13:54;;;;;;;14.23;4.47;;;18.30;99.90;;;;;;5067266;28;20387;-75
2022/08/28 07:16:23;;;;;;;14.60;4.40;;;18.40;99.90;;;;;;5067533;28;20085;-76
2022/08/28 07:18:50;;;;;;;15.77;4.07;;;18.40;99.90;;;;;;5070890;28;20028;-75
2022/08/28 07:21:19;;;;;;;12.73;3.90;;;18.50;99.90;;;;;;5069999;28;20025;-74
2022/08/28 07:23:47;;;;;;;15.18;3.53;;;18.80;99.90;;;;;;5067551;28;20021;-76
2022/08/28 07:26:22;;;;;;;9.75;3.30;;;18.80;99.90;;;;;;5070587;28;20024;-75
2022/08/28 07:28:48;;;;;;;12.30;3.65;;;18.90;99.90;;;;;;5067167;28;20024;-75
2022/08/28 07:31:20;;;;;;;11.23;3.67;;;19.00;99.90;;;;;;5069749;28;20020;-75
2022/08/28 07:33:46;;;;;;;11.27;3.87;;;19.10;99.90;;;;;;5062839;28;20028;-75
2022/08/28 07:36:16;;;;;;;15.60;3.70;;;19.20;99.90;;;;;;5099193;28;20040;-75
2022/08/28 07:38:41;;;;;;;6.00;3.25;;;19.40;99.90;;;;;;5065919;28;20067;-74
2022/08/28 07:41:25;;;;;;;11.25;3.70;;;19.40;99.90;;;;;;5065975;28;20067;-76
2022/08/28 07:46:36;;;;;;;11.35;2.75;;;19.60;99.90;;;;;;5068585;28;20049;-76
2022/08/28 07:49:03;;;;;;;11.90;3.00;;;19.70;99.90;;;;;;5066083;28;20037;-76
2022/08/28 07:51:29;;;;;;;12.15;2.55;;;19.80;99.90;;;;;;5061464;28;20499;-75
2022/08/28 07:53:58;;;;;;;12.00;2.55;;;19.90;99.90;;;;;;5065485;28;20119;-74
2022/08/28 07:56:28;;;;;;;10.20;2.08;;;19.90;99.90;;;;;;5065213;28;20036;-75
2022/08/28 07:59:02;;;;;;;19.35;2.72;;;20.00;99.90;;;;;;5067760;28;20040;-76
2022/08/28 08:01:29;;;;;;;10.15;2.20;;;20.20;99.90;;;;;;5065928;28;20021;-72
2022/08/28 08:03:59;;;;;;;7.07;2.05;;;20.40;99.90;;;;;;5068839;28;20454;-73
2022/08/28 08:06:31;;;;;;;11.13;2.40;;;20.60;99.90;;;;;;5065679;28;20054;-70
2022/08/28 08:08:57;;;;;;;5.35;1.98;;;20.90;99.90;;;;;;5066650;28;20111;-70
2022/08/28 08:11:25;;;;;;;8.13;2.28;;;20.90;99.90;;;;;;5068268;28;20120;-72
2022/08/28 08:13:53;;;;;;;7.18;2.17;;;21.10;99.90;;;;;;5068513;28;20037;-71
2022/08/28 08:16:21;;;;;;;4.00;1.77;;;21.40;99.90;;;;;;5074909;28;20028;-70
2022/08/28 08:18:50;;;;;;;5.07;1.60;;;21.40;99.60;;;;;;5070581;28;20094;-73
2022/08/28 08:21:20;;;;;;;28.63;10.82;;;21.70;99.10;;;;;;5069392;28;20381;-72
2022/08/28 08:23:47;;;;;;;8.80;1.85;;;21.80;98.20;;;;;;5070489;28;20029;-72
2022/08/28 08:26:19;;;;;;;9.52;2.50;;;21.80;97.80;;;;;;5068337;28;20028;-72
2022/08/28 08:28:49;;;;;;;4.75;2.25;;;22.10;97.20;;;;;;5070441;28;20036;-72
2022/08/28 08:31:31;;;;;;;12.18;2.90;;;22.70;96.20;;;;;;5069435;28;20116;-75
2022/08/28 08:34:02;;;;;;;13.10;2.93;;;22.90;94.40;;;;;;5071956;28;20044;-78
2022/08/28 08:36:31;;;;;;;91.55;43.42;;;23.10;93.60;;;;;;5071724;28;20150;-74
2022/08/28 08:38:58;;;;;;;20.95;10.02;;;23.30;93.10;;;;;;5067194;28;20028;-71
2022/08/28 08:41:48;;;;;;;6.95;2.50;;;23.60;91.50;;;;;;5072915;28;20016;-72
2022/08/28 08:44:40;;;;;;;56.00;22.85;;;23.20;91.30;;;;;;5069782;28;20013;-79
2022/08/28 08:47:35;;;;;;;10.48;2.30;;;23.90;90.50;;;;;;5066724;28;20025;-72
2022/08/28 08:50:16;;;;;;;8.48;2.15;;;24.60;87.80;;;;;;5066667;28;20043;-75
2022/08/28 08:52:44;;;;;;;3.42;2.17;;;24.70;85.40;;;;;;5071898;28;20028;-75
2022/08/28 08:55:34;;;;;;;5.13;2.45;;;24.70;83.20;;;;;;5068508;28;20021;-74
2022/08/28 08:58:06;;;;;;;5.93;1.98;;;24.80;82.70;;;;;;5068351;28;20112;-76
2022/08/28 09:00:49;;;;;;;6.57;2.30;;;25.00;84.00;;;;;;5071169;28;20211;-75
2022/08/28 09:03:31;;;;;;;7.88;2.08;;;25.10;79.10;;;;;;5064940;28;20025;-73
2022/08/28 09:06:02;;;;;;;5.25;2.10;;;25.50;78.90;;;;;;5066972;28;20350;-78
2022/08/28 09:08:44;;;;;;;9.20;3.15;;;26.00;77.40;;;;;;5066948;28;20036;-78
2022/08/28 09:11:28;;;;;;;4.40;1.98;;;26.30;74.30;;;;;;5066482;28;20035;-75
2022/08/28 09:14:23;;;;;;;8.05;2.30;;;26.90;71.30;;;;;;5066993;28;20054;-75
2022/08/28 09:16:51;;;;;;;4.30;3.05;;;26.90;70.80;;;;;;5062101;28;20070;-76
2022/08/28 09:19:20;;;;;;;193.90;98.43;;;27.40;67.60;;;;;;5071616;28;20033;-77
2022/08/28 09:21:47;;;;;;;558.85;143.85;;;27.50;67.10;;;;;;5066308;28;20027;-80
2022/08/28 09:24:28;;;;;;;4.75;2.30;;;27.80;64.50;;;;;;5070192;28;20067;-72
2022/08/28 09:26:59;;;;;;;6.03;2.60;;;28.00;61.90;;;;;;5069238;28;20461;-79
2022/08/28 09:29:35;;;;;;;5.97;2.00;;;27.90;62.30;;;;;;5063455;28;20039;-78
2022/08/28 09:32:30;;;;;;;9.90;2.05;;;28.10;61.40;;;;;;5062772;28;20029;-76
2022/08/28 09:35:31;;;;;;;8.68;2.35;;;28.00;60.50;;;;;;5069784;28;20029;-77
2022/08/28 09:38:22;;;;;;;5.85;2.90;;;28.20;59.80;;;;;;5063617;28;20021;-76
2022/08/28 09:43:36;;;;;;;7.47;2.83;;;28.80;59.00;;;;;;5066670;28;20081;-75
2022/08/28 09:46:14;;;;;;;5.10;2.40;;;29.30;58.60;;;;;;5066987;28;20040;-73
2022/08/28 09:48:42;;;;;;;4.95;2.15;;;29.70;57.60;;;;;;5063986;28;20104;-74
2022/08/28 09:51:26;;;;;;;10.55;2.35;;;29.50;56.30;;;;;;5062221;28;20028;-75
2022/08/28 09:53:53;;;;;;;6.22;3.10;;;30.20;55.90;;;;;;5066528;28;20075;-75
2022/08/28 09:56:32;;;;;;;9.93;2.47;;;30.40;53.60;;;;;;5069293;28;20227;-72
2022/08/28 09:59:10;;;;;;;5.97;2.25;;;30.80;54.00;;;;;;5061507;28;20058;-72
2022/08/28 10:01:45;;;;;;;2.88;1.98;;;30.30;52.70;;;;;;5061681;28;20055;-76
2022/08/28 10:04:31;;;;;;;9.98;3.58;;;28.80;54.30;;;;;;5064478;28;20035;-71
2022/08/28 10:07:20;;;;;;;26.10;10.85;;;28.10;56.70;;;;;;5060222;28;20053;-74
2022/08/28 10:10:04;;;;;;;6.53;2.10;;;28.30;56.80;;;;;;5066047;28;20025;-76
2022/08/28 10:12:51;;;;;;;8.00;2.28;;;27.90;56.40;;;;;;5067452;28;20029;-74
2022/08/28 10:15:41;;;;;;;9.20;2.58;;;28.20;56.80;;;;;;5065399;28;20080;-76
2022/08/28 10:18:30;;;;;;;7.82;2.53;;;28.60;55.30;;;;;;5062135;28;20025;-75
2022/08/28 10:21:06;;;;;;;6.63;2.10;;;28.40;54.20;;;;;;5066245;28;20044;-76
2022/08/28 10:24:00;;;;;;;3.65;2.20;;;28.80;54.50;;;;;;5065437;28;20473;-78
2022/08/28 10:26:53;;;;;;;5.45;2.30;;;29.00;54.30;;;;;;5067934;28;20455;-73
2022/08/28 10:29:40;;;;;;;3.03;2.10;;;28.40;54.70;;;;;;5065211;28;20028;-78
2022/08/28 10:32:23;;;;;;;4.53;2.22;;;28.90;55.20;;;;;;5066307;28;20052;-76
2022/08/28 10:35:12;;;;;;;3.88;2.20;;;29.60;54.30;;;;;;5066560;28;20039;-77
2022/08/28 10:38:00;;;;;;;9.20;3.22;;;29.70;52.90;;;;;;5068232;28;20445;-74
2022/08/28 10:40:58;;;;;;;7.50;2.30;;;28.90;53.20;;;;;;5070462;28;20028;-81
2022/08/28 10:43:42;;;;;;;146.73;85.40;;;28.90;54.30;;;;;;5043664;28;20120;-75
2022/08/28 10:46:37;;;;;;;8.05;2.35;;;29.20;52.70;;;;;;5062354;28;20076;-77
2022/08/28 10:49:11;;;;;;;5.65;1.80;;;29.20;52.10;;;;;;5067503;28;20032;-80
2022/08/28 10:51:47;;;;;;;4.57;2.35;;;29.90;51.30;;;;;;5018954;28;20118;-73
2022/08/28 10:54:15;;;;;;;4.63;2.08;;;30.40;50.70;;;;;;4993622;28;20038;-79
2022/08/28 10:56:55;;;;;;;5.55;2.10;;;30.40;50.90;;;;;;4988225;28;20054;-79
2022/08/28 10:59:22;;;;;;;298.80;159.48;;;30.40;49.90;;;;;;4985884;28;20038;-79
2022/08/28 11:01:48;;;;;;;6.60;3.42;;;30.30;50.20;;;;;;4993061;28;20049;-80
2022/08/28 11:04:22;;;;;;;10.02;2.33;;;30.50;49.90;;;;;;4983600;28;20023;-78
2022/08/28 11:06:59;;;;;;;7.05;3.22;;;30.70;48.90;;;;;;4983883;28;20038;-75
2022/08/28 11:09:37;;;;;;;4.53;2.13;;;31.00;47.80;;;;;;5005975;28;20473;-76
2022/08/28 11:12:08;;;;;;;7.43;2.13;;;30.90;47.20;;;;;;4992271;28;20069;-77
2022/08/28 11:14:40;;;;;;;4.65;2.15;;;31.20;47.10;;;;;;4991480;28;20080;-75
2022/08/28 11:17:29;;;;;;;6.45;4.35;;;31.20;46.70;;;;;;4989555;28;20106;-76
2022/08/28 11:20:19;;;;;;;6.03;2.17;;;31.30;46.70;;;;;;4984346;28;20118;-72
2022/08/28 11:22:50;;;;;;;3.17;2.25;;;31.00;46.80;;;;;;4986995;28;20048;-76
2022/08/28 11:25:21;;;;;;;5.28;1.80;;;30.20;47.80;;;;;;4977808;28;20019;-77
2022/08/28 11:28:22;;;;;;;4.25;2.28;;;29.50;48.60;;;;;;4991964;28;20112;-78
2022/08/28 11:31:08;;;;;;;4.28;2.40;;;28.50;49.50;;;;;;4990075;28;20053;-75
2022/08/28 11:33:36;;;;;;;4.40;2.22;;;28.80;50.80;;;;;;4991904;28;20045;-76
2022/08/28 11:36:09;;;;;;;5.05;2.30;;;28.50;50.70;;;;;;5004899;28;20064;-77
2022/08/28 11:38:41;;;;;;;5.20;2.42;;;28.40;51.10;;;;;;4988598;28;20177;-77
2022/08/28 11:41:39;;;;;;;5.95;2.05;;;29.10;50.40;;;;;;4988755;28;20081;-76
2022/08/28 11:44:08;;;;;;;4.35;1.92;;;29.20;49.20;;;;;;4987895;28;20034;-78
2022/08/28 11:46:49;;;;;;;2.72;1.75;;;29.50;48.80;;;;;;4990558;28;20365;-74
2022/08/28 11:49:33;;;;;;;7.70;2.78;;;29.80;48.00;;;;;;4986989;28;20509;-76
2022/08/28 11:52:32;;;;;;;11.15;3.10;;;30.60;47.40;;;;;;4987557;28;20384;-77
2022/08/28 11:55:28;;;;;;;3.75;1.83;;;30.20;46.60;;;;;;4991816;28;20041;-77
2022/08/28 11:58:17;;;;;;;3.28;1.90;;;29.20;48.20;;;;;;4985276;28;20030;-78
2022/08/28 12:01:08;;;;;;;4.70;2.60;;;29.10;49.00;;;;;;4993377;28;20018;-78
2022/08/28 12:03:43;;;;;;;13.05;4.88;;;29.40;48.40;;;;;;4987781;28;20411;-75
2022/08/28 12:06:12;;;;;;;6.10;2.22;;;30.30;47.90;;;;;;4993124;28;20027;-76
2022/08/28 12:08:43;;;;;;;3.03;1.85;;;30.50;46.20;;;;;;4985605;28;20616;-76
2022/08/28 12:11:30;;;;;;;5.05;2.33;;;29.90;46.10;;;;;;4993690;28;20416;-75
2022/08/28 12:13:56;;;;;;;3.50;1.63;;;29.90;47.40;;;;;;4982566;28;20049;-77
2022/08/28 12:16:22;;;;;;;4.70;2.10;;;30.40;46.60;;;;;;4985150;28;20034;-76
2022/08/28 12:18:47;;;;;;;4.72;2.00;;;30.20;46.50;;;;;;5000691;28;20053;-76
2022/08/28 12:21:23;;;;;;;2.20;1.92;;;30.30;46.00;;;;;;4991770;28;20034;-77
2022/08/28 12:24:03;;;;;;;3.30;1.83;;;30.20;46.80;;;;;;5017552;28;20037;-76
2022/08/28 12:26:34;;;;;;;4.20;1.95;;;30.30;46.50;;;;;;5017540;28;20043;-78
2022/08/28 12:29:19;;;;;;;2.72;1.98;;;30.40;45.90;;;;;;4993280;28;20034;-76
2022/08/28 12:32:11;;;;;;;5.25;1.83;;;30.90;45.50;;;;;;4991270;28;20030;-78
2022/08/28 12:35:11;;;;;;;3.17;1.73;;;31.30;44.50;;;;;;4994941;28;20080;-74
2022/08/28 12:37:43;;;;;;;5.65;2.58;;;31.40;44.60;;;;;;4984695;28;20185;-77
2022/08/28 12:40:19;;;;;;;5.90;2.25;;;31.00;44.30;;;;;;5002758;28;20019;-76
2022/08/28 12:43:11;;;;;;;5.05;1.90;;;31.60;44.30;;;;;;4987953;28;20416;-75
2022/08/28 12:45:54;;;;;;;3.47;1.83;;;32.10;43.10;;;;;;4986805;28;20081;-75
2022/08/28 12:48:21;;;;;;;2.70;2.03;;;32.10;42.90;;;;;;4991983;28;20089;-77
2022/08/28 12:50:54;;;;;;;3.17;1.65;;;31.10;43.40;;;;;;4983931;28;20031;-76
2022/08/28 12:53:21;;;;;;;2.42;1.77;;;30.20;44.30;;;;;;4985003;28;20033;-77
2022/08/28 12:55:47;;;;;;;3.65;1.90;;;29.50;45.10;;;;;;4989460;28;20038;-75
2022/08/28 12:58:34;;;;;;;4.10;1.73;;;29.20;45.80;;;;;;4986304;28;20030;-73
2022/08/28 13:01:19;;;;;;;4.47;1.80;;;29.50;46.60;;;;;;4989534;28;20343;-77
2022/08/28 13:03:50;;;;;;;5.38;1.90;;;30.00;46.00;;;;;;4993101;28;20049;-77
2022/08/28 13:06:27;;;;;;;5.35;1.88;;;30.20;45.60;;;;;;4991286;28;20125;-78
2022/08/28 13:09:24;;;;;;;3.83;2.08;;;30.50;45.40;;;;;;4993242;28;20368;-77
2022/08/28 13:11:50;;;;;;;5.68;1.92;;;31.30;44.80;;;;;;4989188;28;20045;-78